Time;durP1;ratioP1;P1;durP2;ratioP2;P2;SDS_P1;SDS_P2;PMS_P1;PMS_P2;Temp;Humidity;BMP_temperature;BMP_pressure;BME280_temperature;BME280_humidity;BME280_pressure;Samples;Min_cycle;Max_cycle;Signal;HPM_P1;HPM_P2
2023/05/07 00:00:37;;;;;;;12.07;7.18;;;13.70;99.90;;;;;;5009375;28;20580;-72
2023/05/07 00:03:03;;;;;;;13.95;7.75;;;13.60;99.90;;;;;;5025309;28;20546;-72
2023/05/07 00:05:28;;;;;;;10.77;7.47;;;13.60;99.90;;;;;;5027195;28;20508;-72
2023/05/07 00:07:54;;;;;;;16.33;8.25;;;13.60;99.90;;;;;;5019142;28;20064;-72
2023/05/07 00:10:20;;;;;;;15.33;7.93;;;13.60;99.90;;;;;;5022234;28;20037;-72
2023/05/07 00:12:45;;;;;;;14.80;8.63;;;13.60;99.90;;;;;;5021856;28;20267;-72
2023/05/07 00:15:11;;;;;;;13.57;8.50;;;13.60;99.90;;;;;;5006163;28;20298;-72
2023/05/07 00:17:37;;;;;;;14.00;7.35;;;13.60;99.90;;;;;;5014796;28;20049;-72
2023/05/07 00:20:04;;;;;;;13.23;8.40;;;13.60;99.90;;;;;;5019573;28;20029;-73
2023/05/07 00:22:30;;;;;;;14.65;8.70;;;13.60;99.90;;;;;;5020460;28;20079;-72
2023/05/07 00:24:56;;;;;;;16.65;8.38;;;13.50;99.90;;;;;;5026385;22;21028;-69
2023/05/07 00:27:23;;;;;;;12.85;8.43;;;13.50;99.90;;;;;;5015862;28;20466;-69
2023/05/07 00:29:49;;;;;;;15.90;8.55;;;13.50;99.90;;;;;;5008082;28;20049;-69
2023/05/07 00:32:15;;;;;;;14.20;7.97;;;13.50;99.90;;;;;;5002203;28;20046;-69
2023/05/07 00:34:40;;;;;;;14.80;8.57;;;13.50;99.90;;;;;;4996003;28;20053;-69
2023/05/07 00:37:09;;;;;;;15.00;8.70;;;13.50;99.90;;;;;;4996252;28;20042;-69
2023/05/07 00:39:35;;;;;;;12.95;8.52;;;13.50;99.90;;;;;;4987334;28;20054;-69
2023/05/07 00:42:02;;;;;;;15.23;7.75;;;13.50;99.90;;;;;;4999548;28;20408;-68
2023/05/07 00:44:29;;;;;;;14.05;8.88;;;13.50;99.90;;;;;;4999353;28;20041;-69
2023/05/07 00:46:57;;;;;;;14.40;7.97;;;13.50;99.90;;;;;;4994632;28;20535;-69
2023/05/07 00:49:25;;;;;;;14.77;9.10;;;13.40;99.90;;;;;;4996347;28;20440;-69
2023/05/07 00:51:51;;;;;;;12.25;7.60;;;13.50;99.90;;;;;;4993106;28;20097;-69
2023/05/07 00:54:17;;;;;;;13.82;8.02;;;13.50;99.90;;;;;;4993721;28;20468;-69
2023/05/07 00:56:43;;;;;;;14.98;8.77;;;13.50;99.90;;;;;;4995198;28;20046;-69
2023/05/07 00:59:08;;;;;;;14.10;9.07;;;13.50;99.90;;;;;;4992844;28;20034;-68
2023/05/07 01:01:34;;;;;;;11.13;7.63;;;13.40;99.90;;;;;;4997327;28;20050;-69
2023/05/07 01:04:00;;;;;;;12.32;7.78;;;13.40;99.90;;;;;;4995095;28;20046;-69
2023/05/07 01:06:27;;;;;;;15.40;8.10;;;13.40;99.90;;;;;;4975418;28;20038;-69
2023/05/07 01:08:56;;;;;;;16.67;8.68;;;13.40;99.90;;;;;;4990317;28;20864;-69
2023/05/07 01:11:22;;;;;;;14.70;8.65;;;13.40;99.90;;;;;;4996960;28;20057;-69
2023/05/07 01:13:50;;;;;;;14.45;8.85;;;13.40;99.90;;;;;;5001451;28;20050;-68
2023/05/07 01:16:16;;;;;;;18.63;9.48;;;13.30;99.90;;;;;;4990116;28;20444;-68
2023/05/07 01:18:42;;;;;;;15.57;9.93;;;13.40;99.90;;;;;;4997221;28;20033;-68
2023/05/07 01:21:11;;;;;;;15.17;9.20;;;13.40;99.90;;;;;;4996610;28;20517;-68
2023/05/07 01:23:37;;;;;;;13.82;9.18;;;13.40;99.90;;;;;;5004232;28;20527;-69
2023/05/07 01:26:02;;;;;;;14.73;9.00;;;13.30;99.90;;;;;;5004593;28;20049;-68
2023/05/07 01:28:28;;;;;;;14.43;9.00;;;13.30;99.90;;;;;;5002446;28;20052;-68
2023/05/07 01:31:01;;;;;;;16.27;9.20;;;13.30;99.90;;;;;;4998623;28;20372;-68
2023/05/07 01:33:31;;;;;;;18.67;9.60;;;13.20;99.90;;;;;;4997685;28;20203;-68
2023/05/07 01:36:00;;;;;;;15.05;9.15;;;13.20;99.90;;;;;;4999540;28;20393;-68
2023/05/07 01:38:27;;;;;;;15.63;9.30;;;13.20;99.90;;;;;;4994425;28;20046;-68
2023/05/07 01:40:53;;;;;;;16.67;9.65;;;13.20;99.90;;;;;;5013191;28;20064;-68
2023/05/07 01:43:19;;;;;;;14.85;10.07;;;13.20;99.90;;;;;;5000615;28;20045;-68
2023/05/07 01:45:45;;;;;;;;;;;13.20;99.90;;;;;;4994492;28;20126;-68
2023/05/07 01:48:13;;;;;;;15.02;9.93;;;13.10;99.90;;;;;;4992734;28;20822;-68
2023/05/07 01:50:40;;;;;;;20.60;9.93;;;13.10;99.90;;;;;;4997000;28;20141;-68
2023/05/07 01:53:06;;;;;;;15.77;9.98;;;13.10;99.90;;;;;;4995037;28;20448;-69
2023/05/07 01:55:31;;;;;;;17.55;10.57;;;13.10;99.90;;;;;;4996338;28;20456;-67
2023/05/07 01:57:57;;;;;;;17.58;10.77;;;13.10;99.90;;;;;;4997384;28;20068;-68
2023/05/07 02:00:23;;;;;;;19.77;11.17;;;13.10;99.90;;;;;;4989981;28;20053;-68
2023/05/07 02:02:49;;;;;;;17.75;10.15;;;13.10;99.90;;;;;;5003434;28;20272;-68
2023/05/07 02:05:14;;;;;;;19.92;11.68;;;13.10;99.90;;;;;;5002940;28;20124;-68
2023/05/07 02:07:40;;;;;;;17.63;10.83;;;13.00;99.90;;;;;;4995496;28;20057;-68
2023/05/07 02:10:06;;;;;;;18.20;10.73;;;13.10;99.90;;;;;;4998284;28;20050;-68
2023/05/07 02:12:31;;;;;;;18.63;11.05;;;13.00;99.90;;;;;;4994315;28;20045;-68
2023/05/07 02:14:57;;;;;;;19.30;11.33;;;13.00;99.90;;;;;;4998777;28;20275;-68
2023/05/07 02:17:23;;;;;;;21.50;11.07;;;12.90;99.90;;;;;;5002331;28;20088;-68
2023/05/07 02:19:48;;;;;;;21.87;11.43;;;13.00;99.90;;;;;;5001495;28;20264;-68
2023/05/07 02:22:14;;;;;;;20.23;11.93;;;12.90;99.90;;;;;;5001250;28;20034;-68
2023/05/07 02:24:40;;;;;;;21.65;11.98;;;12.90;99.90;;;;;;4996896;28;20087;-68
2023/05/07 02:27:05;;;;;;;22.67;12.55;;;12.90;99.90;;;;;;4994915;28;20279;-69
2023/05/07 02:29:31;;;;;;;20.50;11.70;;;12.90;99.90;;;;;;4999981;28;20046;-68
2023/05/07 02:31:56;;;;;;;19.03;11.80;;;12.90;99.90;;;;;;5001364;28;20046;-68
2023/05/07 02:34:22;;;;;;;23.52;12.45;;;12.80;99.90;;;;;;4996577;28;20041;-68
2023/05/07 02:36:48;;;;;;;22.37;11.73;;;12.80;99.90;;;;;;4996100;28;20334;-69
2023/05/07 02:39:13;;;;;;;18.03;10.40;;;12.80;99.90;;;;;;4999134;28;20279;-68
2023/05/07 02:41:39;;;;;;;20.40;11.93;;;12.80;99.90;;;;;;4996498;28;20136;-68
2023/05/07 02:44:05;;;;;;;19.57;12.03;;;12.80;99.90;;;;;;5001770;28;20074;-68
2023/05/07 02:46:31;;;;;;;17.63;11.50;;;12.80;99.90;;;;;;4998045;28;20310;-69
2023/05/07 02:48:56;;;;;;;20.65;11.88;;;12.70;99.90;;;;;;5001881;28;20515;-69
2023/05/07 02:51:23;;;;;;;22.48;11.27;;;12.70;99.90;;;;;;5002882;28;20066;-69
2023/05/07 02:53:48;;;;;;;19.67;11.70;;;12.70;99.90;;;;;;4995188;28;20524;-71
2023/05/07 02:56:14;;;;;;;20.27;12.13;;;12.60;99.90;;;;;;4992001;28;20038;-72
2023/05/07 02:58:41;;;;;;;20.90;12.00;;;12.60;99.90;;;;;;4997964;28;20045;-71
2023/05/07 03:01:08;;;;;;;20.52;12.15;;;12.60;99.90;;;;;;4996340;28;20119;-71
2023/05/07 03:03:33;;;;;;;22.33;13.07;;;12.60;99.90;;;;;;4998931;28;20069;-71
2023/05/07 03:05:59;;;;;;;19.83;12.10;;;12.50;99.90;;;;;;5000610;28;20491;-72
2023/05/07 03:08:25;;;;;;;19.08;12.02;;;12.60;99.90;;;;;;4999587;28;20266;-72
2023/05/07 03:10:51;;;;;;;19.87;12.60;;;12.50;99.90;;;;;;4995285;28;20052;-72
2023/05/07 03:13:17;;;;;;;22.08;12.40;;;12.50;99.90;;;;;;4992420;28;20910;-72
2023/05/07 03:15:42;;;;;;;22.60;12.60;;;12.50;99.90;;;;;;5000755;28;20046;-72
2023/05/07 03:18:08;;;;;;;24.27;12.93;;;12.50;99.90;;;;;;4997249;28;20050;-72
2023/05/07 03:20:34;;;;;;;21.50;12.10;;;12.40;99.90;;;;;;4994833;28;20038;-72
2023/05/07 03:23:00;;;;;;;23.75;12.27;;;12.40;99.90;;;;;;4996214;28;20724;-72
2023/05/07 03:25:25;;;;;;;18.80;11.97;;;12.50;99.90;;;;;;4996468;28;20118;-72
2023/05/07 03:27:51;;;;;;;20.25;12.73;;;12.50;99.90;;;;;;4993803;28;20792;-72
2023/05/07 03:30:17;;;;;;;22.50;13.13;;;12.40;99.90;;;;;;4993760;28;20046;-72
2023/05/07 03:32:42;;;;;;;22.60;13.00;;;12.40;99.90;;;;;;5000884;28;20076;-72
2023/05/07 03:35:08;;;;;;;19.83;12.07;;;12.30;99.90;;;;;;4996443;28;20038;-72
2023/05/07 03:37:34;;;;;;;23.85;13.63;;;12.30;99.90;;;;;;4998576;28;20702;-71
2023/05/07 03:39:59;;;;;;;23.35;12.85;;;12.40;99.90;;;;;;4994304;28;20120;-72
2023/05/07 03:42:25;;;;;;;22.17;12.63;;;12.30;99.90;;;;;;4999745;28;20256;-72
2023/05/07 03:44:51;;;;;;;23.80;12.57;;;12.30;99.90;;;;;;4997585;28;21145;-72
2023/05/07 03:47:16;;;;;;;23.50;13.20;;;12.30;99.90;;;;;;4999083;28;20918;-72
2023/05/07 03:49:42;;;;;;;26.10;14.47;;;12.30;99.90;;;;;;4992985;28;20292;-71
2023/05/07 03:52:08;;;;;;;21.70;13.10;;;12.20;99.90;;;;;;5000264;28;20037;-71
2023/05/07 03:54:33;;;;;;;22.42;13.45;;;12.30;99.90;;;;;;4992200;28;20564;-72
2023/05/07 03:56:59;;;;;;;23.70;13.60;;;12.20;99.90;;;;;;4993785;28;20049;-71
2023/05/07 03:59:24;;;;;;;22.43;13.50;;;12.20;99.90;;;;;;4998601;28;20414;-71
2023/05/07 04:01:50;;;;;;;24.30;15.13;;;12.20;99.90;;;;;;4995784;28;20095;-72
2023/05/07 04:04:16;;;;;;;23.27;14.00;;;12.10;99.90;;;;;;4993882;28;20303;-72
2023/05/07 04:06:42;;;;;;;24.02;14.15;;;12.10;99.90;;;;;;4997716;28;20042;-71
2023/05/07 04:09:08;;;;;;;27.53;14.17;;;12.10;99.90;;;;;;4996806;28;20086;-72
2023/05/07 04:11:35;;;;;;;27.20;14.55;;;12.10;99.90;;;;;;4999718;28;20421;-71
2023/05/07 04:14:01;;;;;;;30.52;14.95;;;12.10;99.90;;;;;;4995996;28;20118;-71
2023/05/07 04:16:27;;;;;;;27.83;15.00;;;12.10;99.90;;;;;;4998623;28;20041;-71
2023/05/07 04:18:52;;;;;;;25.92;14.75;;;12.10;99.90;;;;;;4996054;28;20054;-71
2023/05/07 04:21:19;;;;;;;28.90;15.43;;;12.00;99.90;;;;;;4990117;28;20038;-71
2023/05/07 04:23:49;;;;;;;29.02;15.52;;;12.00;99.90;;;;;;4991555;28;20793;-71
2023/05/07 04:26:15;;;;;;;30.10;15.82;;;12.00;99.90;;;;;;4996545;28;20579;-71
2023/05/07 04:28:41;;;;;;;26.85;15.85;;;12.00;99.90;;;;;;4995265;28;20427;-72
2023/05/07 04:31:07;;;;;;;26.67;14.90;;;11.90;99.90;;;;;;4983454;28;20141;-71
2023/05/07 04:33:33;;;;;;;28.25;15.70;;;11.90;99.90;;;;;;4995766;28;20044;-71
2023/05/07 04:36:02;;;;;;;29.30;15.07;;;11.90;99.90;;;;;;4997541;28;20089;-72
2023/05/07 04:38:29;;;;;;;31.98;15.75;;;11.90;99.90;;;;;;4992569;28;20046;-71
2023/05/07 04:40:56;;;;;;;29.55;15.85;;;11.90;99.90;;;;;;4990301;28;20041;-71
2023/05/07 04:43:22;;;;;;;32.10;16.48;;;11.90;99.90;;;;;;5000152;28;20072;-72
2023/05/07 04:45:49;;;;;;;31.65;16.42;;;11.90;99.90;;;;;;4991536;28;20484;-71
2023/05/07 04:48:15;;;;;;;28.45;15.23;;;11.90;99.90;;;;;;4995485;28;20049;-71
2023/05/07 04:50:41;;;;;;;32.60;15.77;;;11.90;99.90;;;;;;4993903;28;20526;-71
2023/05/07 04:53:06;;;;;;;35.25;17.75;;;11.90;99.90;;;;;;4989731;28;20280;-71
2023/05/07 04:55:32;;;;;;;24.37;15.00;;;11.90;99.90;;;;;;4998787;28;20098;-71
2023/05/07 04:57:58;;;;;;;29.80;16.73;;;11.80;99.90;;;;;;4997522;28;20484;-71
2023/05/07 05:00:25;;;;;;;31.00;16.77;;;11.90;99.90;;;;;;4991788;28;20317;-71
2023/05/07 05:02:50;;;;;;;27.65;16.63;;;11.90;99.90;;;;;;4992814;28;20049;-71
2023/05/07 05:05:16;;;;;;;30.90;16.30;;;11.90;99.90;;;;;;4997663;28;20046;-71
2023/05/07 05:07:41;;;;;;;27.87;15.80;;;11.90;99.90;;;;;;4984232;28;20037;-71
2023/05/07 05:10:07;;;;;;;34.63;17.33;;;11.90;99.90;;;;;;4993168;28;20049;-71
2023/05/07 05:12:33;;;;;;;38.08;17.38;;;11.90;99.90;;;;;;4986229;28;20341;-71
2023/05/07 05:14:58;;;;;;;33.83;16.90;;;11.90;99.90;;;;;;4997687;28;20125;-72
2023/05/07 05:17:24;;;;;;;28.73;16.77;;;11.90;99.90;;;;;;4993580;28;20069;-72
2023/05/07 05:19:50;;;;;;;30.65;16.15;;;11.90;99.90;;;;;;5000314;28;20422;-71
2023/05/07 05:22:16;;;;;;;32.33;16.52;;;11.90;99.90;;;;;;4992629;28;20058;-72
2023/05/07 05:24:42;;;;;;;30.73;16.40;;;11.90;99.90;;;;;;4986632;28;20049;-71
2023/05/07 05:27:08;;;;;;;30.27;16.13;;;11.90;99.90;;;;;;4990578;28;20077;-71
2023/05/07 05:29:33;;;;;;;32.58;16.48;;;12.00;99.90;;;;;;4990557;28;20461;-71
2023/05/07 05:31:59;;;;;;;30.63;16.17;;;11.90;99.90;;;;;;4995737;28;20494;-71
2023/05/07 05:34:24;;;;;;;34.00;17.30;;;11.90;99.90;;;;;;5001153;28;20192;-71
2023/05/07 05:36:50;;;;;;;34.27;16.63;;;12.00;99.90;;;;;;4994896;28;20049;-71
2023/05/07 05:39:16;;;;;;;33.17;16.37;;;12.00;99.90;;;;;;4989174;28;20127;-72
2023/05/07 05:41:41;;;;;;;29.60;15.93;;;12.00;99.90;;;;;;4994610;28;20306;-71
2023/05/07 05:44:07;;;;;;;31.30;16.40;;;12.00;99.90;;;;;;4982583;28;21913;-71
2023/05/07 05:46:32;;;;;;;29.60;16.23;;;12.00;99.90;;;;;;4975249;28;20053;-71
2023/05/07 05:48:58;;;;;;;30.40;16.97;;;12.00;99.90;;;;;;4991742;28;20295;-71
2023/05/07 05:51:24;;;;;;;30.00;16.07;;;12.00;99.90;;;;;;4991514;28;20053;-71
2023/05/07 05:53:49;;;;;;;32.30;17.43;;;12.10;99.90;;;;;;4991849;28;20041;-71
2023/05/07 05:56:16;;;;;;;33.13;15.70;;;12.10;99.90;;;;;;4988558;28;20095;-71
2023/05/07 05:58:41;;;;;;;31.25;15.68;;;12.10;99.90;;;;;;4994863;28;20596;-71
2023/05/07 06:01:07;;;;;;;29.70;15.05;;;12.10;99.90;;;;;;4974867;28;20111;-71
2023/05/07 06:03:33;;;;;;;29.63;14.93;;;12.10;99.90;;;;;;4997724;28;20160;-71
2023/05/07 06:05:59;;;;;;;31.83;14.97;;;12.10;99.90;;;;;;4992900;28;21313;-71
2023/05/07 06:08:26;;;;;;;30.60;15.32;;;12.20;99.90;;;;;;4981686;28;20057;-71
2023/05/07 06:10:51;;;;;;;29.98;16.55;;;12.20;99.90;;;;;;4990088;28;20050;-71
2023/05/07 06:13:17;;;;;;;27.45;14.90;;;12.10;99.90;;;;;;4988242;28;20038;-71
2023/05/07 06:15:43;;;;;;;25.87;15.00;;;12.20;99.90;;;;;;4995471;28;20038;-71
2023/05/07 06:18:08;;;;;;;26.33;15.13;;;12.10;99.90;;;;;;4997042;28;20132;-71
2023/05/07 06:20:34;;;;;;;28.70;15.17;;;12.20;99.90;;;;;;4993958;28;20038;-71
2023/05/07 06:22:59;;;;;;;26.83;15.10;;;12.20;99.90;;;;;;4988199;28;20322;-71
2023/05/07 06:25:25;;;;;;;24.47;13.93;;;12.20;99.90;;;;;;5008595;22;20029;-70
2023/05/07 06:27:51;;;;;;;29.77;15.60;;;12.20;99.90;;;;;;5039487;28;20045;-69
2023/05/07 06:30:16;;;;;;;25.63;14.77;;;12.20;99.90;;;;;;5042787;28;20328;-70
2023/05/07 06:32:42;;;;;;;25.67;14.17;;;12.30;99.90;;;;;;5032531;28;20029;-70
2023/05/07 06:35:08;;;;;;;27.73;14.93;;;12.30;99.90;;;;;;5015244;28;20052;-70
2023/05/07 06:37:34;;;;;;;28.10;14.13;;;12.30;99.90;;;;;;5033161;28;20282;-70
2023/05/07 06:39:59;;;;;;;23.20;13.25;;;12.40;99.90;;;;;;5022819;28;20048;-70
2023/05/07 06:42:25;;;;;;;24.70;14.63;;;12.40;99.90;;;;;;5021038;28;20046;-70
2023/05/07 06:44:50;;;;;;;23.07;13.67;;;12.40;99.90;;;;;;5017577;28;20041;-70
2023/05/07 06:47:16;;;;;;;23.97;14.10;;;12.50;99.90;;;;;;5019570;28;20544;-70
2023/05/07 06:49:42;;;;;;;25.90;13.53;;;12.50;99.90;;;;;;5028751;28;20033;-69
2023/05/07 06:52:07;;;;;;;26.53;14.07;;;12.50;99.90;;;;;;5023174;28;20529;-70
2023/05/07 06:54:33;;;;;;;27.17;14.13;;;12.50;99.90;;;;;;5015243;28;20041;-70
2023/05/07 06:56:58;;;;;;;27.35;13.43;;;12.50;99.90;;;;;;5024174;28;20459;-70
2023/05/07 06:59:24;;;;;;;21.83;13.20;;;12.50;99.90;;;;;;5033591;28;20061;-70
2023/05/07 07:01:50;;;;;;;24.52;13.98;;;12.60;99.90;;;;;;5002727;28;20499;-70
2023/05/07 07:04:15;;;;;;;24.23;13.73;;;12.60;99.90;;;;;;5025267;28;20045;-70
2023/05/07 07:06:41;;;;;;;24.75;13.38;;;12.60;99.90;;;;;;5030277;28;20052;-70
2023/05/07 07:09:07;;;;;;;25.50;13.15;;;12.60;99.90;;;;;;5023268;28;20088;-69
2023/05/07 07:11:32;;;;;;;23.67;13.70;;;12.60;99.90;;;;;;5022207;28;20077;-70
2023/05/07 07:13:58;;;;;;;22.70;13.20;;;12.60;99.90;;;;;;5024341;28;20235;-70
2023/05/07 07:16:24;;;;;;;20.33;12.88;;;12.60;99.90;;;;;;5021735;28;20383;-70
2023/05/07 07:18:50;;;;;;;24.30;12.55;;;12.60;99.90;;;;;;5028097;28;20049;-70
2023/05/07 07:21:16;;;;;;;25.90;13.80;;;12.70;99.90;;;;;;5013242;28;20400;-70
2023/05/07 07:23:41;;;;;;;22.53;12.67;;;12.70;99.90;;;;;;5007994;28;20056;-70
2023/05/07 07:26:07;;;;;;;24.13;12.93;;;12.70;99.90;;;;;;5030336;28;20525;-70
2023/05/07 07:28:33;;;;;;;21.23;13.17;;;12.70;99.90;;;;;;5029623;28;20044;-71
2023/05/07 07:30:58;;;;;;;22.33;13.77;;;12.70;99.90;;;;;;5029180;28;20042;-71
2023/05/07 07:33:24;;;;;;;25.53;13.53;;;12.70;99.90;;;;;;5024323;28;20072;-70
2023/05/07 07:35:49;;;;;;;22.20;12.20;;;12.70;99.90;;;;;;5027852;28;20045;-70
2023/05/07 07:38:15;;;;;;;22.67;11.87;;;12.70;99.90;;;;;;5008192;28;20806;-74
2023/05/07 07:40:41;;;;;;;25.35;14.70;;;12.70;99.90;;;;;;5027833;28;20057;-71
2023/05/07 07:43:06;;;;;;;23.83;12.83;;;12.80;99.90;;;;;;5027447;28;20034;-72
2023/05/07 07:45:32;;;;;;;23.47;12.60;;;12.80;99.90;;;;;;5015889;28;20044;-70
2023/05/07 07:47:58;;;;;;;23.88;12.73;;;12.90;99.90;;;;;;5028463;28;20325;-71
2023/05/07 07:50:23;;;;;;;22.63;13.27;;;12.90;99.90;;;;;;5028805;28;20048;-71
2023/05/07 07:52:49;;;;;;;25.30;13.83;;;13.00;99.90;;;;;;5029962;28;20044;-71
2023/05/07 07:55:17;;;;;;;24.23;13.73;;;13.10;99.90;;;;;;5026790;28;20052;-70
2023/05/07 07:57:43;;;;;;;22.48;13.60;;;13.10;99.90;;;;;;5026557;28;20049;-69
2023/05/07 08:00:09;;;;;;;24.77;14.23;;;13.20;99.90;;;;;;5031987;28;20095;-71
2023/05/07 08:02:35;;;;;;;20.75;12.57;;;13.20;99.90;;;;;;5025673;28;20132;-70
2023/05/07 08:05:03;;;;;;;20.27;13.17;;;13.30;99.90;;;;;;5026011;28;21064;-71
2023/05/07 08:07:29;;;;;;;28.40;14.52;;;13.40;99.90;;;;;;5020210;28;20052;-70
2023/05/07 08:09:57;;;;;;;25.17;13.48;;;13.40;99.90;;;;;;5026781;28;20033;-74
2023/05/07 08:12:25;;;;;;;24.27;14.75;;;13.50;99.90;;;;;;4995095;28;20345;-79
2023/05/07 08:14:51;;;;;;;24.65;13.38;;;13.50;99.90;;;;;;5039244;28;20041;-76
2023/05/07 08:17:17;;;;;;;22.55;13.15;;;13.50;99.90;;;;;;5021918;28;20632;-78
2023/05/07 08:19:43;;;;;;;21.73;13.02;;;13.50;99.90;;;;;;5025010;28;20387;-75
2023/05/07 08:22:10;;;;;;;27.33;14.55;;;13.60;99.90;;;;;;5018642;28;20103;-74
2023/05/07 08:24:36;;;;;;;20.15;13.05;;;13.60;99.90;;;;;;5005123;28;20284;-72
2023/05/07 08:27:02;;;;;;;23.55;12.88;;;13.70;99.90;;;;;;5017410;28;20041;-71
2023/05/07 08:29:27;;;;;;;25.70;13.27;;;13.80;99.90;;;;;;5018678;28;20038;-78
2023/05/07 08:31:53;;;;;;;22.03;13.20;;;13.80;99.90;;;;;;5029303;28;20360;-76
2023/05/07 08:34:19;;;;;;;20.20;13.10;;;13.90;99.90;;;;;;5009135;28;20037;-75
2023/05/07 08:36:48;;;;;;;21.25;13.32;;;13.90;99.90;;;;;;5027328;28;20588;-72
2023/05/07 08:39:15;;;;;;;21.63;13.50;;;14.10;99.90;;;;;;5017577;28;20133;-71
2023/05/07 08:41:45;;;;;;;20.40;12.32;;;14.10;99.90;;;;;;4999923;28;20095;-72
2023/05/07 08:44:13;;;;;;;20.92;12.95;;;14.10;99.90;;;;;;4997684;28;20284;-71
2023/05/07 08:46:41;;;;;;;27.05;13.75;;;14.20;99.90;;;;;;5024588;28;20041;-72
2023/05/07 08:49:07;;;;;;;27.70;14.43;;;14.30;99.90;;;;;;5019167;28;20041;-71
2023/05/07 08:51:33;;;;;;;23.50;13.20;;;14.30;99.90;;;;;;5024550;28;20044;-71
2023/05/07 08:54:01;;;;;;;22.65;12.63;;;14.40;99.90;;;;;;5025720;28;20431;-71
2023/05/07 08:56:26;;;;;;;22.90;12.45;;;14.40;99.90;;;;;;5025839;28;20059;-72
2023/05/07 08:58:58;;;;;;;21.50;13.73;;;14.40;99.90;;;;;;5021022;28;20124;-71
2023/05/07 09:01:25;;;;;;;21.65;13.75;;;14.40;99.90;;;;;;5009303;28;20046;-74
2023/05/07 09:03:51;;;;;;;22.98;12.93;;;14.40;99.90;;;;;;5009182;28;20114;-77
2023/05/07 09:06:19;;;;;;;22.30;12.68;;;14.50;99.90;;;;;;5015269;28;20033;-76
2023/05/07 09:08:53;;;;;;;24.38;13.43;;;14.50;99.90;;;;;;5020750;28;20041;-75
2023/05/07 09:11:23;;;;;;;18.92;11.82;;;14.50;99.90;;;;;;5018401;28;20077;-73
2023/05/07 09:13:54;;;;;;;22.27;13.07;;;14.60;99.90;;;;;;4996265;28;20416;-71
2023/05/07 09:16:21;;;;;;;23.80;13.27;;;14.70;99.90;;;;;;5014973;28;20094;-78
2023/05/07 09:18:50;;;;;;;23.90;13.32;;;14.80;99.90;;;;;;5017550;28;20541;-77
2023/05/07 09:21:17;;;;;;;21.65;13.55;;;14.90;99.90;;;;;;5025612;28;21090;-81
2023/05/07 09:23:45;;;;;;;24.00;13.95;;;14.90;99.90;;;;;;5018908;28;20958;-72
2023/05/07 09:26:13;;;;;;;23.60;14.30;;;15.00;99.90;;;;;;5012514;28;20211;-72
2023/05/07 09:28:42;;;;;;;23.85;12.95;;;15.10;99.90;;;;;;5025275;28;20060;-74
2023/05/07 09:31:11;;;;;;;24.05;12.85;;;15.10;99.90;;;;;;5025862;28;20056;-71
2023/05/07 09:33:38;;;;;;;23.10;13.18;;;15.20;99.90;;;;;;5028819;28;20332;-71
2023/05/07 09:36:05;;;;;;;20.27;13.10;;;15.20;99.90;;;;;;5029695;28;20091;-72
2023/05/07 09:38:32;;;;;;;22.48;14.50;;;15.30;99.90;;;;;;5037745;28;20048;-71
2023/05/07 09:41:13;;;;;;;22.25;13.70;;;15.40;99.90;;;;;;5022947;28;20473;-72
2023/05/07 09:43:40;;;;;;;24.60;13.63;;;15.40;99.90;;;;;;5014938;28;20044;-71
2023/05/07 09:46:24;;;;;;;26.15;14.38;;;15.40;99.90;;;;;;5020125;28;20048;-71
2023/05/07 09:48:54;;;;;;;21.83;12.95;;;15.50;99.90;;;;;;5020225;28;20438;-72
2023/05/07 09:51:31;;;;;;;24.15;13.70;;;15.60;99.90;;;;;;5014903;28;20041;-71
2023/05/07 09:54:00;;;;;;;22.67;14.25;;;15.60;99.90;;;;;;5026815;28;20057;-71
2023/05/07 09:56:26;;;;;;;23.08;13.63;;;15.70;99.90;;;;;;5028009;28;20128;-72
2023/05/07 09:58:55;;;;;;;23.45;13.70;;;15.80;99.90;;;;;;5013882;28;20063;-72
2023/05/07 10:01:22;;;;;;;23.95;12.98;;;15.80;99.90;;;;;;5021603;28;20075;-70
2023/05/07 10:03:50;;;;;;;27.65;14.52;;;15.90;99.90;;;;;;5032715;28;20545;-72
2023/05/07 10:06:16;;;;;;;20.35;12.15;;;16.00;99.90;;;;;;5031511;28;20432;-70
2023/05/07 10:08:42;;;;;;;;;;;16.00;99.90;;;;;;5023484;28;20044;-71
2023/05/07 10:11:09;;;;;;;20.33;12.50;;;16.10;99.90;;;;;;5026128;28;19917;-71
2023/05/07 10:13:38;;;;;;;22.13;13.00;;;16.20;99.90;;;;;;5036461;28;20043;-72
2023/05/07 10:16:05;;;;;;;20.20;13.13;;;16.20;99.90;;;;;;5023413;28;20100;-71
2023/05/07 10:18:33;;;;;;;22.58;13.32;;;16.20;99.90;;;;;;5012426;28;20048;-71
2023/05/07 10:21:07;;;;;;;21.48;13.13;;;16.20;99.90;;;;;;5029667;28;20041;-72
2023/05/07 10:23:36;;;;;;;23.38;13.05;;;16.10;99.90;;;;;;5020768;28;20041;-71
2023/05/07 10:26:05;;;;;;;20.30;12.82;;;16.20;99.90;;;;;;5028834;28;20052;-72
2023/05/07 10:28:34;;;;;;;20.80;13.13;;;16.20;99.90;;;;;;5026930;28;20102;-72
2023/05/07 10:31:08;;;;;;;25.75;13.88;;;16.30;99.90;;;;;;5026373;28;20160;-72
2023/05/07 10:33:36;;;;;;;23.88;13.35;;;16.40;99.90;;;;;;5027246;28;20049;-72
2023/05/07 10:36:04;;;;;;;22.40;13.68;;;16.50;99.90;;;;;;5021693;28;20045;-72
2023/05/07 10:38:30;;;;;;;21.40;13.65;;;16.60;99.90;;;;;;5025710;28;20104;-72
2023/05/07 10:40:56;;;;;;;20.70;11.90;;;16.70;99.90;;;;;;5025641;28;20064;-71
2023/05/07 10:43:22;;;;;;;21.02;12.68;;;16.90;99.90;;;;;;5004298;28;20046;-71
2023/05/07 10:46:17;;;;;;;21.95;12.77;;;17.00;99.90;;;;;;5023582;28;20080;-71
2023/05/07 10:49:12;;;;;;;19.52;12.75;;;17.10;99.90;;;;;;5018919;28;20053;-72
2023/05/07 10:51:38;;;;;;;21.30;12.82;;;17.20;99.90;;;;;;4998589;28;20060;-71
2023/05/07 10:54:10;;;;;;;20.25;12.57;;;17.20;99.90;;;;;;5025062;28;20111;-71
2023/05/07 10:56:42;;;;;;;22.98;13.57;;;17.30;99.90;;;;;;5021973;28;20608;-72
2023/05/07 10:59:20;;;;;;;26.08;13.05;;;17.40;99.90;;;;;;5033661;28;20116;-71
2023/05/07 11:01:50;;;;;;;20.30;12.48;;;17.60;99.90;;;;;;5027704;28;20048;-71
2023/05/07 11:04:18;;;;;;;17.08;11.02;;;17.60;99.90;;;;;;5009990;28;20338;-72
2023/05/07 11:07:06;;;;;;;22.48;12.40;;;17.60;99.90;;;;;;5026823;28;20046;-71
2023/05/07 11:09:51;;;;;;;24.10;13.30;;;17.80;99.90;;;;;;5024900;28;20048;-72
2023/05/07 11:12:38;;;;;;;19.83;11.68;;;17.90;99.90;;;;;;5021842;28;20045;-72
2023/05/07 11:15:08;;;;;;;;;;;17.90;99.90;;;;;;5024060;28;20507;-71
2023/05/07 11:17:34;;;;;;;19.15;11.77;;;18.00;99.90;;;;;;5025162;28;19917;-72
2023/05/07 11:20:01;;;;;;;18.90;11.52;;;18.00;99.90;;;;;;5028002;28;20037;-71
2023/05/07 11:22:33;;;;;;;21.42;13.25;;;18.10;99.90;;;;;;5033515;28;20533;-71
2023/05/07 11:25:03;;;;;;;19.52;12.35;;;18.20;99.90;;;;;;5026605;28;20077;-72
2023/05/07 11:27:29;;;;;;;17.63;11.38;;;18.30;99.90;;;;;;5019967;28;20042;-72
2023/05/07 11:29:58;;;;;;;16.95;11.57;;;18.40;99.90;;;;;;5018036;28;20046;-72
2023/05/07 11:32:29;;;;;;;19.58;10.95;;;18.50;99.90;;;;;;5039790;28;20037;-72
2023/05/07 11:34:57;;;;;;;17.17;11.82;;;18.50;99.90;;;;;;5027272;28;20384;-72
2023/05/07 11:37:24;;;;;;;20.30;11.27;;;18.60;99.90;;;;;;5027799;28;20048;-71
2023/05/07 11:39:55;;;;;;;17.30;10.95;;;18.70;99.90;;;;;;5027600;28;20048;-70
2023/05/07 11:42:35;;;;;;;17.33;10.63;;;18.70;99.90;;;;;;5018014;28;20514;-71
2023/05/07 11:45:01;;;;;;;17.15;10.55;;;18.70;99.90;;;;;;5022265;28;20034;-72
2023/05/07 11:47:29;;;;;;;;;;;18.90;99.90;;;;;;5030930;28;20038;-71
2023/05/07 11:49:56;;;;;;;17.10;11.13;;;19.00;99.90;;;;;;5026177;28;20010;-72
2023/05/07 11:52:25;;;;;;;18.35;11.77;;;19.10;99.90;;;;;;5018621;28;20053;-71
2023/05/07 11:54:55;;;;;;;18.00;10.88;;;19.20;99.90;;;;;;5018783;28;20041;-71
2023/05/07 11:57:22;;;;;;;17.52;10.88;;;19.40;99.90;;;;;;5002530;28;20052;-71
2023/05/07 11:59:52;;;;;;;15.73;10.10;;;19.40;99.90;;;;;;5020139;28;20045;-72
2023/05/07 12:02:18;;;;;;;16.20;10.50;;;19.40;99.90;;;;;;5027648;28;20099;-71
2023/05/07 12:04:44;;;;;;;17.98;10.93;;;19.40;99.90;;;;;;5024633;28;20041;-71
2023/05/07 12:07:14;;;;;;;17.67;10.77;;;19.40;99.90;;;;;;5015983;28;20469;-72
2023/05/07 12:09:44;;;;;;;17.55;10.73;;;19.40;99.90;;;;;;5027830;28;20061;-71
2023/05/07 12:12:10;;;;;;;16.92;11.23;;;19.30;99.90;;;;;;5020272;28;20037;-70
2023/05/07 12:14:43;;;;;;;16.42;10.43;;;19.40;99.90;;;;;;5021716;28;20534;-72
2023/05/07 12:17:10;;;;;;;15.18;9.82;;;19.40;99.90;;;;;;5025531;28;20199;-72
2023/05/07 12:19:37;;;;;;;18.63;11.35;;;19.40;99.90;;;;;;5018648;28;20046;-72
2023/05/07 12:22:04;;;;;;;15.45;11.05;;;19.50;99.90;;;;;;5024506;28;20045;-70
2023/05/07 12:24:41;;;;;;;14.68;10.23;;;19.70;99.90;;;;;;5023268;28;20443;-72
2023/05/07 12:27:07;;;;;;;17.10;10.35;;;19.90;99.90;;;;;;5102439;22;20107;-69
2023/05/07 12:29:32;;;;;;;15.90;10.23;;;20.20;99.90;;;;;;5019782;28;20077;-70